createdAt,value
2022-07-29T00:00:01.150Z,21.18
2022-07-29T00:02:28.822Z,21.15
2022-07-29T00:04:55.739Z,21.11
2022-07-29T00:07:22.659Z,21.10
2022-07-29T00:09:51.309Z,21.07
2022-07-29T00:12:26.318Z,21.04
2022-07-29T00:14:57.748Z,21.02
2022-07-29T00:17:25.737Z,20.96
2022-07-29T00:19:53.009Z,20.90
2022-07-29T00:22:21.118Z,20.89
2022-07-29T00:24:51.167Z,20.90
2022-07-29T00:27:19.119Z,20.90
2022-07-29T00:29:46.502Z,20.88
2022-07-29T00:32:13.338Z,20.81
2022-07-29T00:34:40.308Z,20.78
2022-07-29T00:37:07.878Z,20.75
2022-07-29T00:39:35.022Z,20.73
2022-07-29T00:42:05.117Z,20.69
2022-07-29T00:44:31.991Z,20.67
2022-07-29T00:46:58.864Z,20.65
2022-07-29T00:49:25.837Z,20.58
2022-07-29T00:51:52.672Z,20.53
2022-07-29T00:54:19.699Z,20.51
2022-07-29T00:56:46.640Z,20.37
2022-07-29T00:59:13.484Z,20.44
2022-07-29T01:01:40.402Z,20.44
2022-07-29T01:04:08.242Z,20.44
2022-07-29T01:06:35.749Z,20.40
2022-07-29T01:09:02.972Z,20.31
2022-07-29T01:11:29.944Z,20.31
2022-07-29T01:13:57.984Z,20.33
2022-07-29T01:16:34.288Z,20.33
2022-07-29T01:19:26.972Z,20.29
2022-07-29T01:22:01.520Z,20.25
2022-07-29T01:24:34.925Z,20.23
2022-07-29T01:27:48.214Z,20.18
2022-07-29T01:30:16.010Z,20.18
2022-07-29T01:32:48.677Z,20.14
2022-07-29T01:35:22.833Z,20.16
2022-07-29T01:38:09.417Z,20.17
2022-07-29T01:40:47.710Z,20.15
2022-07-29T01:43:18.727Z,20.13
2022-07-29T01:45:57.374Z,20.11
2022-07-29T01:48:32.285Z,20.13
2022-07-29T01:51:20.706Z,20.10
2022-07-29T01:53:55.207Z,20.03
2022-07-29T01:56:25.268Z,19.97
2022-07-29T01:58:54.379Z,19.97
2022-07-29T02:01:25.258Z,19.95
2022-07-29T02:03:54.511Z,19.93
2022-07-29T02:06:23.629Z,19.93
2022-07-29T02:08:53.761Z,19.88
2022-07-29T02:11:20.827Z,19.76
2022-07-29T02:13:50.490Z,19.72
2022-07-29T02:16:20.197Z,19.73
2022-07-29T02:18:50.870Z,19.74
2022-07-29T02:21:24.129Z,19.67
2022-07-29T02:23:53.550Z,19.64
2022-07-29T02:26:24.323Z,19.65
2022-07-29T02:28:55.041Z,19.65
2022-07-29T02:31:26.645Z,19.58
2022-07-29T02:33:55.784Z,19.61
2022-07-29T02:36:24.635Z,19.63
2022-07-29T02:38:52.484Z,19.61
2022-07-29T02:41:30.602Z,19.59
2022-07-29T02:44:04.812Z,19.56
2022-07-29T02:46:37.765Z,19.48
2022-07-29T02:49:16.497Z,19.44
2022-07-29T02:52:09.551Z,19.43
2022-07-29T02:54:42.203Z,19.42
2022-07-29T02:57:24.090Z,19.41
2022-07-29T02:59:53.997Z,19.38
2022-07-29T03:02:22.734Z,19.27
2022-07-29T03:04:51.827Z,19.28
2022-07-29T03:07:21.419Z,19.27
2022-07-29T03:09:49.056Z,19.22
2022-07-29T03:12:17.298Z,19.23
2022-07-29T03:14:45.407Z,19.14
2022-07-29T03:17:12.708Z,19.18
2022-07-29T03:19:40.758Z,19.13
2022-07-29T03:22:07.839Z,19.13
2022-07-29T03:24:36.827Z,19.07
2022-07-29T03:27:05.533Z,19.08
2022-07-29T03:29:34.513Z,19.12
2022-07-29T03:32:08.027Z,19.03
2022-07-29T03:34:37.116Z,19.04
2022-07-29T03:37:04.160Z,19.00
2022-07-29T03:39:36.258Z,19.02
2022-07-29T03:42:05.732Z,19.06
2022-07-29T03:44:33.700Z,19.02
2022-07-29T03:47:02.491Z,18.96
2022-07-29T03:49:30.678Z,18.94
2022-07-29T03:51:57.854Z,18.95
2022-07-29T03:54:24.733Z,18.88
2022-07-29T03:56:53.851Z,18.90
2022-07-29T03:59:22.175Z,18.92
2022-07-29T04:01:50.148Z,18.97
2022-07-29T04:04:18.052Z,18.98
2022-07-29T04:06:48.360Z,18.94
2022-07-29T04:09:15.746Z,18.95
2022-07-29T04:12:03.565Z,18.84
2022-07-29T04:14:31.791Z,18.82
2022-07-29T04:16:58.635Z,18.83
2022-07-29T04:19:25.740Z,18.81
2022-07-29T04:21:52.596Z,18.86
2022-07-29T04:24:19.722Z,18.92
2022-07-29T04:26:48.194Z,18.93
2022-07-29T04:29:14.925Z,18.94
2022-07-29T04:31:42.699Z,18.96
2022-07-29T04:34:09.741Z,18.92
2022-07-29T04:36:36.516Z,18.82
2022-07-29T04:39:04.273Z,18.86
2022-07-29T04:41:32.995Z,18.90
2022-07-29T04:44:00.907Z,18.80
2022-07-29T04:46:28.448Z,18.73
2022-07-29T04:48:55.371Z,18.82
2022-07-29T04:51:22.220Z,18.88
2022-07-29T04:53:49.071Z,18.93
2022-07-29T04:56:15.857Z,18.98
2022-07-29T04:58:42.682Z,18.96
2022-07-29T05:01:09.466Z,18.90
2022-07-29T05:03:36.328Z,18.97
2022-07-29T05:06:03.188Z,18.99
2022-07-29T05:08:30.165Z,19.07
2022-07-29T05:10:57.110Z,19.12
2022-07-29T05:13:23.943Z,19.18
2022-07-29T05:15:50.758Z,19.23
2022-07-29T05:18:17.572Z,19.27
2022-07-29T05:20:44.356Z,19.32
2022-07-29T05:23:11.105Z,19.40
2022-07-29T05:25:43.160Z,19.47
2022-07-29T05:28:11.445Z,19.53
2022-07-29T05:30:38.423Z,19.59
2022-07-29T05:33:05.220Z,19.67
2022-07-29T05:35:32.121Z,19.77
2022-07-29T05:37:58.896Z,19.83
2022-07-29T05:40:25.654Z,19.92
2022-07-29T05:42:52.697Z,20.02
2022-07-29T05:45:19.477Z,20.03
2022-07-29T05:47:46.289Z,20.10
2022-07-29T05:50:14.160Z,20.24
2022-07-29T05:52:41.034Z,20.35
2022-07-29T05:55:08.297Z,20.41
2022-07-29T05:57:35.068Z,20.52
2022-07-29T06:00:02.103Z,20.61
2022-07-29T06:02:39.128Z,20.62
2022-07-29T06:05:06.565Z,20.65
2022-07-29T06:07:38.671Z,20.71
2022-07-29T06:10:16.414Z,20.73
2022-07-29T06:12:43.204Z,20.75
2022-07-29T06:15:10.554Z,20.85
2022-07-29T06:17:37.421Z,20.86
2022-07-29T06:20:27.024Z,20.88
2022-07-29T06:22:54.132Z,20.96
2022-07-29T06:25:21.005Z,20.99
2022-07-29T06:27:47.885Z,21.03
2022-07-29T06:30:14.849Z,21.03
2022-07-29T06:32:43.362Z,21.08
2022-07-29T06:35:38.947Z,21.15
2022-07-29T06:37:58.021Z,21.17
2022-07-29T06:40:26.672Z,21.21
2022-07-29T06:42:53.611Z,21.28
2022-07-29T06:45:20.515Z,21.29
2022-07-29T06:47:47.482Z,21.32
2022-07-29T06:50:14.245Z,21.35
2022-07-29T06:52:41.375Z,21.37
2022-07-29T06:55:08.752Z,21.39
2022-07-29T06:57:35.735Z,21.41
2022-07-29T07:00:02.658Z,21.42
2022-07-29T07:02:29.530Z,21.45
2022-07-29T07:04:56.330Z,21.48
2022-07-29T07:07:23.212Z,21.48
2022-07-29T07:09:49.948Z,21.51
2022-07-29T07:12:16.930Z,21.56
2022-07-29T07:14:43.689Z,21.60
2022-07-29T07:17:10.503Z,21.64
2022-07-29T07:19:37.293Z,21.68
2022-07-29T07:22:04.092Z,21.72
2022-07-29T07:24:31.800Z,21.74
2022-07-29T07:26:58.629Z,21.83
2022-07-29T07:29:25.411Z,21.85
2022-07-29T07:31:55.168Z,21.88
2022-07-29T07:34:29.459Z,21.91
2022-07-29T07:36:56.727Z,21.93
2022-07-29T07:39:23.514Z,21.98
2022-07-29T07:41:50.547Z,22.06
2022-07-29T07:44:17.749Z,22.11
2022-07-29T07:46:44.795Z,22.19
2022-07-29T07:49:12.475Z,22.41
2022-07-29T07:51:39.387Z,22.52
2022-07-29T07:54:06.188Z,22.53
2022-07-29T07:56:35.392Z,22.69
2022-07-29T07:59:02.287Z,22.87
2022-07-29T08:01:29.202Z,22.92
2022-07-29T08:04:15.329Z,22.90
2022-07-29T08:06:42.816Z,23.01
2022-07-29T08:09:28.139Z,23.22
2022-07-29T08:11:56.529Z,23.23
2022-07-29T08:14:23.290Z,23.30
2022-07-29T08:16:50.181Z,23.39
2022-07-29T08:19:17.207Z,23.41
2022-07-29T08:21:44.091Z,23.53
2022-07-29T08:24:10.852Z,23.53
2022-07-29T08:26:37.568Z,23.60
2022-07-29T08:29:04.395Z,23.62
2022-07-29T08:31:31.269Z,23.70
2022-07-29T08:33:58.094Z,23.92
2022-07-29T08:36:25.616Z,24.05
2022-07-29T08:38:52.399Z,24.16
2022-07-29T08:41:20.840Z,24.23
2022-07-29T08:43:48.657Z,24.29
2022-07-29T08:46:15.568Z,24.33
2022-07-29T08:48:42.741Z,24.42
2022-07-29T08:51:10.526Z,24.67
2022-07-29T08:53:37.581Z,24.50
2022-07-29T08:56:04.651Z,24.56
2022-07-29T08:58:36.876Z,24.63
2022-07-29T09:01:06.896Z,24.66
2022-07-29T09:03:37.433Z,24.58
2022-07-29T09:06:05.111Z,24.44
2022-07-29T09:08:33.643Z,24.50
2022-07-29T09:11:04.097Z,24.61
2022-07-29T09:13:32.184Z,24.49
2022-07-29T09:15:59.007Z,24.60
2022-07-29T09:18:35.887Z,24.55
2022-07-29T09:21:04.329Z,24.67
2022-07-29T09:23:31.091Z,24.65
2022-07-29T09:26:06.811Z,24.77
2022-07-29T09:28:33.768Z,24.72
2022-07-29T09:31:00.570Z,24.67
2022-07-29T09:33:36.161Z,24.76
2022-07-29T09:36:07.608Z,24.78
2022-07-29T09:38:35.672Z,24.85
2022-07-29T09:41:06.489Z,24.73
2022-07-29T09:43:34.363Z,24.78
2022-07-29T09:46:19.196Z,24.83
2022-07-29T09:48:46.037Z,24.85
2022-07-29T09:51:24.179Z,24.93
2022-07-29T09:53:53.856Z,25.11
2022-07-29T09:56:20.647Z,25.26
2022-07-29T09:58:47.435Z,25.47
2022-07-29T10:01:14.322Z,25.53
2022-07-29T10:03:54.177Z,25.58
2022-07-29T10:06:21.124Z,25.68
2022-07-29T10:08:48.529Z,25.71
2022-07-29T10:11:18.196Z,25.86
2022-07-29T10:13:47.195Z,25.86
2022-07-29T10:16:15.313Z,25.89
2022-07-29T10:18:44.451Z,25.87
2022-07-29T10:21:22.606Z,26.08
2022-07-29T10:24:01.310Z,26.23
2022-07-29T10:26:30.558Z,26.00
2022-07-29T10:28:57.321Z,25.96
2022-07-29T10:31:37.659Z,26.06
2022-07-29T10:34:33.922Z,26.02
2022-07-29T10:37:14.115Z,26.15
2022-07-29T10:40:28.623Z,26.00
2022-07-29T10:43:01.682Z,26.03
2022-07-29T10:45:30.796Z,26.07
2022-07-29T10:48:05.794Z,26.05
2022-07-29T10:51:06.866Z,26.03
2022-07-29T10:53:51.535Z,26.06
2022-07-29T10:56:29.708Z,26.15
2022-07-29T10:59:22.743Z,26.19
2022-07-29T11:01:54.400Z,26.23
2022-07-29T11:04:44.579Z,26.20
2022-07-29T11:07:12.011Z,26.22
2022-07-29T11:09:38.873Z,26.29
2022-07-29T11:12:39.252Z,26.43
2022-07-29T11:15:08.419Z,26.44
2022-07-29T11:17:53.547Z,26.36
2022-07-29T11:20:41.552Z,26.35
2022-07-29T11:23:33.362Z,26.37
2022-07-29T11:26:12.809Z,26.42
2022-07-29T11:29:18.081Z,26.45
2022-07-29T11:31:47.791Z,26.48
2022-07-29T11:34:27.801Z,26.66
2022-07-29T11:37:08.300Z,26.82
2022-07-29T11:39:40.053Z,26.88
2022-07-29T11:42:32.323Z,26.96
2022-07-29T11:45:41.751Z,27.04
2022-07-29T11:48:28.002Z,27.03
2022-07-29T11:50:48.849Z,27.05
2022-07-29T11:53:16.466Z,27.05
2022-07-29T11:55:51.095Z,27.07
2022-07-29T11:58:24.840Z,27.07
2022-07-29T12:00:53.198Z,27.11
2022-07-29T12:03:33.545Z,27.30
2022-07-29T12:09:11.204Z,27.39
2022-07-29T12:11:41.619Z,27.35
2022-07-29T12:14:34.485Z,27.48
2022-07-29T12:17:01.541Z,27.49
2022-07-29T12:19:28.413Z,27.46
2022-07-29T12:21:59.775Z,27.47
2022-07-29T12:24:44.976Z,27.34
2022-07-29T12:27:12.956Z,27.32
2022-07-29T12:29:41.989Z,27.28
2022-07-29T12:32:19.409Z,27.29
2022-07-29T12:34:47.312Z,27.37
2022-07-29T12:37:14.410Z,27.40
2022-07-29T12:39:41.366Z,27.33
2022-07-29T12:42:18.445Z,27.46
2022-07-29T12:44:51.222Z,27.40
2022-07-29T12:47:20.286Z,27.34
2022-07-29T12:49:47.514Z,27.33
2022-07-29T12:52:29.824Z,27.34
2022-07-29T12:54:57.159Z,27.38
2022-07-29T12:57:24.366Z,27.33
2022-07-29T13:00:06.009Z,27.33
2022-07-29T13:02:33.018Z,27.26
2022-07-29T13:05:00.966Z,27.23
2022-07-29T13:07:55.674Z,26.97
2022-07-29T13:10:24.423Z,26.90
2022-07-29T13:13:12.271Z,26.72
2022-07-29T13:16:08.461Z,26.62
2022-07-29T13:18:36.606Z,26.53
2022-07-29T13:21:15.203Z,26.43
2022-07-29T13:23:43.007Z,26.28
2022-07-29T13:26:11.973Z,26.15
2022-07-29T13:28:39.322Z,25.86
2022-07-29T13:31:06.311Z,25.73
2022-07-29T13:33:33.287Z,25.55
2022-07-29T13:36:00.076Z,25.49
2022-07-29T13:38:30.992Z,25.32
2022-07-29T13:40:58.893Z,25.17
2022-07-29T13:43:25.692Z,24.91
2022-07-29T13:45:52.553Z,24.71
2022-07-29T13:48:19.528Z,24.60
2022-07-29T13:50:46.335Z,24.28
2022-07-29T13:53:17.757Z,24.12
2022-07-29T13:55:45.379Z,23.87
2022-07-29T13:58:12.153Z,23.63
2022-07-29T14:00:39.010Z,23.06
2022-07-29T14:03:05.728Z,22.73
2022-07-29T14:05:32.589Z,22.52
2022-07-29T14:07:59.334Z,22.27
2022-07-29T14:10:27.480Z,22.16
2022-07-29T14:12:54.321Z,21.98
2022-07-29T14:15:21.129Z,21.96
2022-07-29T14:17:47.934Z,21.94
2022-07-29T14:20:14.674Z,21.92
2022-07-29T14:22:42.606Z,21.78
2022-07-29T14:25:14.379Z,21.69
2022-07-29T14:27:42.950Z,21.62
2022-07-29T14:30:10.466Z,21.51
2022-07-29T14:32:37.403Z,21.29
2022-07-29T14:35:05.414Z,21.02
2022-07-29T14:37:39.934Z,20.98
2022-07-29T14:40:11.926Z,20.90
2022-07-29T14:42:41.197Z,20.80
2022-07-29T14:45:10.385Z,20.73
2022-07-29T14:47:38.137Z,20.68
2022-07-29T14:50:05.713Z,20.62
2022-07-29T14:52:32.947Z,20.69
2022-07-29T14:54:59.837Z,20.78
2022-07-29T14:57:26.597Z,20.83
2022-07-29T14:59:53.459Z,20.85
2022-07-29T15:02:20.254Z,20.96
2022-07-29T15:04:47.239Z,21.09
2022-07-29T15:07:14.004Z,21.15
2022-07-29T15:09:49.996Z,21.27
2022-07-29T15:12:17.033Z,21.33
2022-07-29T15:14:44.023Z,21.39
2022-07-29T15:17:10.886Z,21.45
2022-07-29T15:19:37.874Z,21.50
2022-07-29T15:22:05.294Z,21.58
2022-07-29T15:24:32.534Z,21.60
2022-07-29T15:26:59.562Z,21.65
2022-07-29T15:29:26.463Z,21.75
2022-07-29T15:31:53.253Z,21.85
2022-07-29T15:34:20.075Z,21.94
2022-07-29T15:36:52.374Z,22.03
2022-07-29T15:39:20.328Z,22.01
2022-07-29T15:41:47.088Z,22.03
2022-07-29T15:44:13.948Z,21.99
2022-07-29T15:46:41.088Z,21.88
2022-07-29T15:49:08.574Z,21.71
2022-07-29T15:51:35.696Z,21.66
2022-07-29T15:54:03.910Z,21.69
2022-07-29T15:56:31.667Z,21.72
2022-07-29T15:58:58.600Z,21.72
2022-07-29T16:01:25.858Z,21.70
2022-07-29T16:03:53.254Z,21.79
2022-07-29T16:06:20.270Z,21.83
2022-07-29T16:08:47.191Z,21.90
2022-07-29T16:11:13.994Z,21.95
2022-07-29T16:13:40.790Z,22.00
2022-07-29T16:16:08.960Z,21.95
2022-07-29T16:18:35.879Z,22.01
2022-07-29T16:21:02.748Z,22.05
2022-07-29T16:23:29.624Z,22.01
2022-07-29T16:26:00.133Z,22.02
2022-07-29T16:28:28.705Z,22.07
2022-07-29T16:30:55.574Z,22.15
2022-07-29T16:33:22.563Z,22.24
2022-07-29T16:35:51.016Z,22.31
2022-07-29T16:38:17.809Z,22.35
2022-07-29T16:40:44.745Z,22.41
2022-07-29T16:43:11.468Z,22.46
2022-07-29T16:45:45.352Z,22.52
2022-07-29T16:48:14.151Z,22.60
2022-07-29T16:50:41.387Z,22.71
2022-07-29T16:53:10.677Z,22.81
2022-07-29T16:55:37.775Z,22.90
2022-07-29T16:58:04.901Z,22.92
2022-07-29T17:00:31.802Z,22.90
2022-07-29T17:02:59.468Z,22.92
2022-07-29T17:05:28.534Z,22.92
2022-07-29T17:07:55.602Z,22.91
2022-07-29T17:10:22.455Z,22.90
2022-07-29T17:12:49.644Z,22.89
2022-07-29T17:15:17.374Z,22.90
2022-07-29T17:17:55.243Z,22.90
2022-07-29T17:20:25.224Z,22.92
2022-07-29T17:22:52.125Z,22.92
2022-07-29T17:25:20.548Z,22.91
2022-07-29T17:27:50.739Z,22.89
2022-07-29T17:30:18.107Z,22.88
2022-07-29T17:32:45.160Z,22.87
2022-07-29T17:35:12.725Z,22.86
2022-07-29T17:37:40.351Z,22.83
2022-07-29T17:40:07.990Z,22.83
2022-07-29T17:42:34.804Z,22.82
2022-07-29T17:45:01.733Z,22.83
2022-07-29T17:47:28.546Z,22.81
2022-07-29T17:49:55.513Z,22.83
2022-07-29T17:52:22.264Z,22.81
2022-07-29T17:54:49.063Z,22.80
2022-07-29T17:57:16.107Z,22.82
2022-07-29T17:59:43.077Z,22.82
2022-07-29T18:02:10.023Z,22.81
2022-07-29T18:04:37.568Z,22.80
2022-07-29T18:07:04.958Z,22.76
2022-07-29T18:09:31.758Z,22.76
2022-07-29T18:11:58.500Z,22.75
2022-07-29T18:14:25.406Z,22.74
2022-07-29T18:16:52.259Z,22.74
2022-07-29T18:19:19.075Z,22.68
2022-07-29T18:21:54.569Z,22.62
2022-07-29T18:24:25.597Z,22.62
2022-07-29T18:26:53.723Z,22.61
2022-07-29T18:29:21.164Z,22.60
2022-07-29T18:31:47.988Z,22.55
2022-07-29T18:34:14.945Z,22.54
2022-07-29T18:36:41.684Z,22.52
2022-07-29T18:39:08.524Z,22.48
2022-07-29T18:41:35.744Z,22.43
2022-07-29T18:44:21.909Z,22.40
2022-07-29T18:46:51.924Z,22.32
2022-07-29T18:49:19.503Z,22.28
2022-07-29T18:51:46.397Z,22.26
2022-07-29T18:54:13.224Z,22.25
2022-07-29T18:56:39.987Z,22.24
2022-07-29T18:59:06.908Z,22.24
2022-07-29T19:01:33.701Z,22.23
2022-07-29T19:04:01.065Z,22.20
2022-07-29T19:06:27.888Z,22.16
2022-07-29T19:08:54.744Z,22.10
2022-07-29T19:11:21.817Z,22.10
2022-07-29T19:13:49.645Z,22.06
2022-07-29T19:16:16.805Z,22.03
2022-07-29T19:18:43.631Z,21.96
2022-07-29T19:21:11.153Z,21.93
2022-07-29T19:24:06.009Z,21.91
2022-07-29T19:26:26.277Z,21.90
2022-07-29T19:28:53.302Z,21.88
2022-07-29T19:31:20.279Z,21.85
2022-07-29T19:33:47.142Z,21.73
2022-07-29T19:36:14.024Z,21.59
2022-07-29T19:38:40.974Z,21.50
2022-07-29T19:41:07.791Z,21.44
2022-07-29T19:43:50.965Z,21.36
2022-07-29T19:46:23.215Z,21.26
2022-07-29T19:48:50.458Z,21.25
2022-07-29T19:51:17.405Z,21.18
2022-07-29T19:53:44.236Z,20.96
2022-07-29T19:56:10.985Z,20.93
2022-07-29T19:58:37.856Z,20.85
2022-07-29T20:01:10.284Z,20.79
2022-07-29T20:03:40.640Z,20.73
2022-07-29T20:06:07.645Z,20.64
2022-07-29T20:08:34.738Z,20.58
2022-07-29T20:11:01.968Z,20.63
2022-07-29T20:13:28.866Z,20.62
2022-07-29T20:15:55.660Z,20.48
2022-07-29T20:18:22.468Z,20.45
2022-07-29T20:20:49.310Z,20.36
2022-07-29T20:23:16.220Z,20.32
2022-07-29T20:25:43.118Z,20.38
2022-07-29T20:28:09.939Z,20.38
2022-07-29T20:30:38.528Z,20.43
2022-07-29T20:33:05.933Z,20.54
2022-07-29T20:35:32.880Z,20.65
2022-07-29T20:37:59.742Z,20.66
2022-07-29T20:40:27.991Z,20.51
2022-07-29T20:42:55.703Z,20.35
2022-07-29T20:45:23.656Z,20.38
2022-07-29T20:47:51.593Z,20.47
2022-07-29T20:50:19.553Z,20.52
2022-07-29T20:52:46.316Z,20.32
2022-07-29T20:55:13.058Z,20.20
2022-07-29T20:57:40.181Z,20.14
2022-07-29T21:00:07.618Z,20.12
2022-07-29T21:02:34.508Z,20.18
2022-07-29T21:05:01.398Z,20.19
2022-07-29T21:07:28.189Z,20.17
2022-07-29T21:09:55.035Z,20.22
2022-07-29T21:12:21.780Z,20.34
2022-07-29T21:14:48.580Z,20.37
2022-07-29T21:17:16.607Z,20.37
2022-07-29T21:19:43.389Z,20.40
2022-07-29T21:22:10.420Z,20.44
2022-07-29T21:24:37.211Z,20.48
2022-07-29T21:27:19.833Z,20.47
2022-07-29T21:29:47.791Z,20.39
2022-07-29T21:32:14.729Z,20.38
2022-07-29T21:34:56.244Z,20.41
2022-07-29T21:37:23.061Z,20.34
2022-07-29T21:39:49.894Z,20.25
2022-07-29T21:42:16.692Z,20.25
2022-07-29T21:44:43.568Z,20.28
2022-07-29T21:47:11.414Z,20.31
2022-07-29T21:49:39.134Z,20.27
2022-07-29T21:52:08.064Z,20.26
2022-07-29T21:54:35.748Z,20.27
2022-07-29T21:57:03.451Z,20.26
2022-07-29T21:59:30.698Z,20.29
2022-07-29T22:01:57.878Z,20.24
2022-07-29T22:04:24.797Z,20.33
2022-07-29T22:06:51.700Z,20.36
2022-07-29T22:09:18.428Z,20.37
2022-07-29T22:11:45.391Z,20.39
2022-07-29T22:14:12.119Z,20.37
2022-07-29T22:16:38.953Z,20.32
2022-07-29T22:19:05.840Z,20.33
2022-07-29T22:21:32.746Z,20.24
2022-07-29T22:24:01.633Z,20.23
2022-07-29T22:26:28.509Z,20.10
2022-07-29T22:28:55.342Z,19.82
2022-07-29T22:31:22.244Z,19.73
2022-07-29T22:33:53.209Z,19.71
2022-07-29T22:36:20.090Z,19.77
2022-07-29T22:38:51.535Z,19.86
2022-07-29T22:41:18.913Z,19.89
2022-07-29T22:43:45.689Z,19.97
2022-07-29T22:46:12.572Z,19.97
2022-07-29T22:48:39.430Z,20.02
2022-07-29T22:51:07.043Z,20.06
2022-07-29T22:53:33.946Z,20.05
2022-07-29T22:56:00.895Z,20.05
2022-07-29T22:58:27.685Z,20.00
2022-07-29T23:00:54.689Z,20.00
2022-07-29T23:03:21.946Z,19.99
2022-07-29T23:05:48.954Z,19.96
2022-07-29T23:08:15.791Z,19.95
2022-07-29T23:10:42.688Z,19.97
2022-07-29T23:13:09.563Z,19.70
2022-07-29T23:15:36.489Z,19.59
2022-07-29T23:18:03.368Z,19.50
2022-07-29T23:20:30.174Z,19.45
2022-07-29T23:22:56.937Z,19.32
2022-07-29T23:25:23.756Z,19.25
2022-07-29T23:27:50.638Z,19.03
2022-07-29T23:30:17.551Z,19.04
2022-07-29T23:32:44.339Z,19.16
2022-07-29T23:35:11.303Z,19.18
2022-07-29T23:37:38.222Z,19.20
2022-07-29T23:40:08.675Z,19.24
2022-07-29T23:42:37.819Z,19.28
2022-07-29T23:45:05.941Z,19.29
2022-07-29T23:47:32.699Z,19.27
2022-07-29T23:49:59.600Z,19.27
2022-07-29T23:52:26.831Z,19.30
2022-07-29T23:54:54.886Z,19.27
2022-07-29T23:57:41.689Z,19.26
